createdAt,value
2023-01-17T00:00:56.521Z,0.00
2023-01-17T00:01:56.637Z,0.00
2023-01-17T00:02:57.070Z,0.00
2023-01-17T00:03:57.096Z,0.00
2023-01-17T00:04:56.863Z,0.00
2023-01-17T00:05:56.592Z,0.00
2023-01-17T00:06:56.561Z,0.00
2023-01-17T00:07:57.280Z,0.00
2023-01-17T00:08:56.493Z,0.00
2023-01-17T00:09:56.689Z,0.00
2023-01-17T00:10:56.468Z,0.00
2023-01-17T00:11:56.481Z,0.00
2023-01-17T00:12:56.444Z,0.00
2023-01-17T00:13:56.449Z,0.00
2023-01-17T00:14:56.432Z,0.00
2023-01-17T00:15:56.468Z,0.00
2023-01-17T00:16:57.878Z,0.00
2023-01-17T00:17:56.429Z,0.00
2023-01-17T00:18:56.440Z,0.00
2023-01-17T00:19:56.413Z,0.00
2023-01-17T00:20:56.400Z,0.00
2023-01-17T00:21:56.505Z,0.00
2023-01-17T00:22:56.407Z,0.00
2023-01-17T00:23:56.392Z,0.00
2023-01-17T00:24:57.286Z,0.00
2023-01-17T00:25:57.459Z,0.00
2023-01-17T00:26:57.001Z,0.00
2023-01-17T00:27:56.383Z,0.00
2023-01-17T00:28:57.306Z,0.00
2023-01-17T00:29:56.855Z,0.00
2023-01-17T00:30:56.402Z,0.00
2023-01-17T00:31:56.333Z,0.00
2023-01-17T00:32:56.416Z,0.00
2023-01-17T00:33:56.422Z,0.00
2023-01-17T00:34:56.304Z,0.00
2023-01-17T00:35:56.642Z,0.00
2023-01-17T00:36:56.299Z,0.00
2023-01-17T00:37:56.314Z,0.00
2023-01-17T00:38:56.282Z,0.00
2023-01-17T00:39:56.280Z,0.00
2023-01-17T00:40:56.903Z,0.00
2023-01-17T00:41:56.882Z,0.00
2023-01-17T00:42:56.311Z,0.00
2023-01-17T00:43:56.279Z,0.00
2023-01-17T00:44:56.251Z,0.00
2023-01-17T00:45:56.252Z,0.00
2023-01-17T00:46:56.256Z,0.00
2023-01-17T00:47:56.970Z,0.00
2023-01-17T00:48:56.229Z,0.00
2023-01-17T00:49:56.218Z,0.00
2023-01-17T00:50:56.224Z,0.00
2023-01-17T00:51:56.208Z,0.00
2023-01-17T00:52:56.234Z,0.00
2023-01-17T00:53:56.198Z,0.00
2023-01-17T00:54:56.210Z,0.00
2023-01-17T00:55:56.186Z,0.00
2023-01-17T00:56:56.178Z,0.00
2023-01-17T00:57:56.190Z,0.00
2023-01-17T00:58:56.155Z,0.00
2023-01-17T00:59:56.165Z,0.00
2023-01-17T01:00:56.318Z,0.00
2023-01-17T01:01:56.312Z,0.00
2023-01-17T01:02:56.158Z,0.00
2023-01-17T01:03:56.133Z,0.00
2023-01-17T01:04:56.130Z,0.00
2023-01-17T01:05:56.119Z,0.00
2023-01-17T01:06:56.229Z,0.00
2023-01-17T01:07:56.325Z,0.00
2023-01-17T01:08:56.104Z,0.00
2023-01-17T01:09:56.103Z,0.00
2023-01-17T01:10:56.102Z,0.00
2023-01-17T01:11:56.083Z,0.00
2023-01-17T01:12:56.330Z,0.00
2023-01-17T01:13:56.063Z,0.00
2023-01-17T01:14:56.064Z,0.00
2023-01-17T01:15:56.082Z,0.00
2023-01-17T01:16:56.051Z,0.00
2023-01-17T01:17:56.054Z,0.00
2023-01-17T01:18:56.031Z,0.00
2023-01-17T01:19:56.028Z,0.00
2023-01-17T01:20:56.026Z,0.00
2023-01-17T01:21:56.022Z,0.00
2023-01-17T01:22:56.020Z,0.00
2023-01-17T01:23:56.000Z,0.00
2023-01-17T01:24:55.989Z,0.00
2023-01-17T01:25:55.999Z,0.00
2023-01-17T01:26:55.979Z,0.00
2023-01-17T01:27:56.003Z,0.00
2023-01-17T01:28:55.971Z,0.00
2023-01-17T01:29:55.980Z,0.00
2023-01-17T01:30:55.997Z,0.00
2023-01-17T01:31:55.959Z,0.00
2023-01-17T01:32:55.979Z,0.00
2023-01-17T01:33:55.950Z,0.00
2023-01-17T01:34:55.940Z,0.00
2023-01-17T01:35:55.929Z,0.00
2023-01-17T01:36:55.918Z,0.00
2023-01-17T01:37:55.937Z,0.00
2023-01-17T01:38:55.916Z,0.00
2023-01-17T01:39:55.891Z,0.00
2023-01-17T01:40:56.012Z,0.00
2023-01-17T01:41:55.887Z,0.00
2023-01-17T01:42:55.915Z,0.00
2023-01-17T01:43:55.879Z,0.00
2023-01-17T01:44:55.883Z,0.00
2023-01-17T01:45:55.894Z,0.00
2023-01-17T01:46:55.864Z,0.00
2023-01-17T01:47:55.853Z,0.00
2023-01-17T01:48:55.920Z,0.00
2023-01-17T01:49:55.834Z,0.00
2023-01-17T01:50:55.831Z,0.00
2023-01-17T01:51:55.854Z,0.00
2023-01-17T01:52:55.820Z,0.00
2023-01-17T01:53:55.837Z,0.00
2023-01-17T01:54:55.823Z,0.00
2023-01-17T01:55:55.799Z,0.00
2023-01-17T01:56:56.389Z,0.00
2023-01-17T01:57:55.782Z,0.00
2023-01-17T01:58:55.815Z,0.00
2023-01-17T01:59:56.401Z,0.00
2023-01-17T02:00:56.047Z,0.00
2023-01-17T02:01:56.616Z,0.00
2023-01-17T02:02:56.024Z,0.00
2023-01-17T02:03:55.842Z,0.00
2023-01-17T02:04:55.769Z,0.00
2023-01-17T02:05:56.618Z,0.00
2023-01-17T02:06:55.839Z,0.00
2023-01-17T02:07:56.622Z,0.00
2023-01-17T02:08:55.825Z,0.00
2023-01-17T02:09:56.048Z,0.00
2023-01-17T02:10:56.056Z,0.00
2023-01-17T02:11:56.667Z,0.00
2023-01-17T02:12:55.746Z,0.00
2023-01-17T02:13:55.716Z,0.00
2023-01-17T02:14:56.315Z,0.00
2023-01-17T02:15:56.496Z,0.00
2023-01-17T02:16:56.699Z,0.00
2023-01-17T02:17:56.684Z,0.00
2023-01-17T02:18:55.917Z,0.00
2023-01-17T02:19:55.696Z,0.00
2023-01-17T02:20:55.725Z,0.00
2023-01-17T02:21:56.555Z,0.00
2023-01-17T02:22:56.323Z,0.00
2023-01-17T02:23:55.714Z,0.00
2023-01-17T02:24:55.623Z,0.00
2023-01-17T02:25:55.748Z,0.00
2023-01-17T02:26:55.738Z,0.00
2023-01-17T02:27:55.758Z,0.00
2023-01-17T02:28:55.796Z,0.00
2023-01-17T02:29:55.953Z,0.00
2023-01-17T02:30:55.961Z,0.00
2023-01-17T02:31:55.635Z,0.00
2023-01-17T02:32:55.982Z,0.00
2023-01-17T02:33:56.031Z,0.00
2023-01-17T02:34:56.064Z,0.00
2023-01-17T02:35:56.200Z,0.00
2023-01-17T02:36:56.241Z,0.00
2023-01-17T02:37:55.549Z,0.00
2023-01-17T02:38:55.559Z,0.00
2023-01-17T02:39:55.829Z,0.00
2023-01-17T02:40:56.457Z,0.00
2023-01-17T02:41:55.640Z,0.00
2023-01-17T02:42:56.343Z,0.00
2023-01-17T02:43:55.518Z,0.00
2023-01-17T02:44:55.657Z,0.00
2023-01-17T02:45:55.703Z,0.00
2023-01-17T02:46:56.463Z,0.00
2023-01-17T02:47:56.357Z,0.00
2023-01-17T02:48:55.910Z,0.00
2023-01-17T02:49:56.426Z,0.00
2023-01-17T02:50:56.326Z,0.00
2023-01-17T02:51:56.489Z,0.00
2023-01-17T02:52:55.717Z,0.00
2023-01-17T02:53:56.295Z,0.00
2023-01-17T02:54:55.435Z,0.00
2023-01-17T02:55:56.355Z,0.00
2023-01-17T02:56:55.736Z,0.00
2023-01-17T02:57:55.492Z,0.00
2023-01-17T02:58:56.224Z,0.00
2023-01-17T02:59:56.234Z,0.00
2023-01-17T03:00:55.519Z,0.00
2023-01-17T03:01:55.540Z,0.00
2023-01-17T03:02:56.204Z,0.00
2023-01-17T03:03:55.386Z,0.00
2023-01-17T03:04:55.397Z,0.00
2023-01-17T03:05:55.381Z,0.00
2023-01-17T03:06:55.391Z,0.00
2023-01-17T03:07:55.591Z,0.00
2023-01-17T03:08:55.391Z,0.00
2023-01-17T03:09:55.614Z,0.00
2023-01-17T03:10:55.675Z,0.00
2023-01-17T03:11:55.835Z,0.00
2023-01-17T03:12:55.833Z,0.00
2023-01-17T03:13:55.848Z,0.00
2023-01-17T03:14:55.852Z,0.00
2023-01-17T03:15:55.658Z,0.00
2023-01-17T03:16:55.928Z,0.00
2023-01-17T03:17:55.307Z,0.00
2023-01-17T03:18:55.285Z,0.00
2023-01-17T03:19:55.595Z,0.00
2023-01-17T03:20:55.266Z,0.00
2023-01-17T03:21:55.478Z,0.00
2023-01-17T03:22:55.823Z,0.00
2023-01-17T03:23:56.226Z,0.00
2023-01-17T03:24:55.411Z,0.00
2023-01-17T03:25:55.243Z,0.00
2023-01-17T03:26:55.539Z,0.00
2023-01-17T03:27:55.524Z,0.00
2023-01-17T03:28:55.238Z,0.00
2023-01-17T03:29:55.232Z,0.00
2023-01-17T03:30:55.521Z,0.00
2023-01-17T03:31:56.238Z,0.00
2023-01-17T03:32:55.233Z,0.00
2023-01-17T03:33:55.182Z,0.00
2023-01-17T03:34:55.174Z,0.00
2023-01-17T03:35:55.181Z,0.00
2023-01-17T03:36:55.172Z,0.00
2023-01-17T03:37:55.268Z,0.00
2023-01-17T03:38:55.153Z,0.00
2023-01-17T03:39:55.154Z,0.00
2023-01-17T03:40:55.151Z,0.00
2023-01-17T03:41:55.132Z,0.00
2023-01-17T03:42:55.141Z,0.00
2023-01-17T03:43:55.133Z,0.00
2023-01-17T03:44:55.124Z,0.00
2023-01-17T03:45:55.168Z,0.00
2023-01-17T03:46:55.112Z,0.00
2023-01-17T03:47:55.148Z,0.00
2023-01-17T03:48:55.103Z,0.00
2023-01-17T03:49:55.076Z,0.00
2023-01-17T03:50:55.079Z,0.00
2023-01-17T03:51:55.082Z,0.00
2023-01-17T03:52:55.089Z,0.00
2023-01-17T03:53:55.359Z,0.00
2023-01-17T03:54:55.088Z,0.00
2023-01-17T03:55:55.057Z,0.00
2023-01-17T03:56:55.090Z,0.00
2023-01-17T03:57:55.037Z,0.00
2023-01-17T03:58:55.025Z,0.00
2023-01-17T03:59:55.033Z,0.00
2023-01-17T04:00:55.327Z,0.00
2023-01-17T04:01:55.200Z,0.00
2023-01-17T04:02:55.056Z,0.00
2023-01-17T04:03:55.451Z,0.00
2023-01-17T04:04:54.994Z,0.00
2023-01-17T04:05:54.997Z,0.00
2023-01-17T04:06:54.995Z,0.00
2023-01-17T04:07:55.582Z,0.00
2023-01-17T04:08:55.122Z,0.00
2023-01-17T04:09:54.979Z,0.00
2023-01-17T04:10:54.957Z,0.00
2023-01-17T04:11:54.954Z,0.00
2023-01-17T04:12:54.950Z,0.00
2023-01-17T04:13:54.932Z,0.00
2023-01-17T04:14:54.932Z,0.00
2023-01-17T04:15:55.655Z,0.00
2023-01-17T04:16:55.014Z,0.00
2023-01-17T04:17:54.938Z,0.00
2023-01-17T04:18:54.910Z,0.00
2023-01-17T04:19:54.969Z,0.00
2023-01-17T04:20:54.918Z,0.00
2023-01-17T04:21:54.882Z,0.00
2023-01-17T04:22:54.900Z,0.00
2023-01-17T04:23:55.087Z,0.00
2023-01-17T04:24:55.160Z,0.00
2023-01-17T04:25:54.865Z,0.00
2023-01-17T04:26:54.872Z,0.00
2023-01-17T04:27:54.837Z,0.00
2023-01-17T04:28:54.944Z,0.00
2023-01-17T04:29:54.831Z,0.00
2023-01-17T04:30:54.845Z,0.00
2023-01-17T04:31:54.875Z,0.00
2023-01-17T04:32:54.852Z,0.00
2023-01-17T04:33:55.080Z,0.00
2023-01-17T04:34:54.804Z,0.00
2023-01-17T04:35:54.797Z,0.00
2023-01-17T04:36:54.807Z,0.00
2023-01-17T04:37:54.783Z,0.00
2023-01-17T04:38:54.809Z,0.00
2023-01-17T04:39:54.778Z,0.00
2023-01-17T04:40:54.791Z,0.00
2023-01-17T04:41:54.808Z,0.00
2023-01-17T04:42:54.829Z,0.00
2023-01-17T04:43:54.772Z,0.00
2023-01-17T04:44:54.777Z,0.00
2023-01-17T04:45:54.761Z,0.00
2023-01-17T04:46:54.748Z,0.00
2023-01-17T04:47:54.722Z,0.00
2023-01-17T04:48:54.755Z,0.00
2023-01-17T04:49:54.721Z,0.00
2023-01-17T04:50:54.735Z,0.00
2023-01-17T04:51:55.480Z,0.00
2023-01-17T04:52:55.619Z,0.00
2023-01-17T04:53:55.529Z,0.00
2023-01-17T04:54:54.680Z,0.00
2023-01-17T04:55:54.680Z,0.00
2023-01-17T04:56:54.678Z,0.00
2023-01-17T04:57:54.660Z,0.00
2023-01-17T04:58:54.670Z,0.00
2023-01-17T04:59:54.652Z,0.00
2023-01-17T05:00:54.671Z,0.00
2023-01-17T05:01:54.723Z,0.00
2023-01-17T05:02:54.713Z,0.00
2023-01-17T05:03:54.646Z,0.00
2023-01-17T05:04:54.634Z,0.00
2023-01-17T05:05:54.617Z,0.00
2023-01-17T05:06:54.637Z,0.00
2023-01-17T05:07:54.611Z,0.00
2023-01-17T05:08:54.612Z,0.00
2023-01-17T05:09:54.594Z,0.00
2023-01-17T05:10:54.584Z,0.00
2023-01-17T05:11:55.388Z,0.00
2023-01-17T05:12:55.508Z,0.00
2023-01-17T05:13:54.582Z,0.00
2023-01-17T05:14:54.574Z,0.00
2023-01-17T05:15:54.611Z,0.00
2023-01-17T05:16:54.548Z,0.00
2023-01-17T05:17:54.543Z,0.00
2023-01-17T05:18:54.594Z,0.00
2023-01-17T05:19:54.545Z,0.00
2023-01-17T05:20:54.523Z,0.00
2023-01-17T05:21:54.523Z,0.00
2023-01-17T05:22:54.535Z,0.00
2023-01-17T05:23:54.520Z,0.00
2023-01-17T05:24:54.489Z,0.00
2023-01-17T05:25:54.490Z,0.00
2023-01-17T05:26:54.505Z,0.00
2023-01-17T05:27:54.499Z,0.00
2023-01-17T05:28:54.508Z,0.00
2023-01-17T05:29:54.479Z,0.00
2023-01-17T05:30:54.492Z,0.00
2023-01-17T05:31:54.466Z,0.00
2023-01-17T05:32:54.456Z,0.00
2023-01-17T05:33:54.461Z,0.00
2023-01-17T05:34:54.435Z,0.00
2023-01-17T05:35:54.434Z,0.00
2023-01-17T05:36:54.416Z,0.00
2023-01-17T05:37:54.425Z,0.00
2023-01-17T05:38:54.437Z,0.00
2023-01-17T05:39:54.402Z,0.00
2023-01-17T05:40:54.396Z,0.00
2023-01-17T05:41:54.398Z,0.00
2023-01-17T05:42:54.392Z,0.00
2023-01-17T05:43:54.415Z,0.00
2023-01-17T05:44:54.375Z,0.00
2023-01-17T05:45:54.399Z,0.00
2023-01-17T05:46:54.374Z,0.00
2023-01-17T05:47:54.354Z,0.00
2023-01-17T05:48:54.347Z,0.00
2023-01-17T05:49:54.381Z,0.00
2023-01-17T05:50:54.365Z,0.00
2023-01-17T05:51:55.073Z,0.00
2023-01-17T05:52:54.323Z,0.00
2023-01-17T05:53:54.358Z,0.00
2023-01-17T05:54:54.387Z,0.00
2023-01-17T05:55:54.338Z,0.00
2023-01-17T05:56:54.310Z,0.00
2023-01-17T05:57:54.315Z,0.00
2023-01-17T05:58:54.278Z,0.00
2023-01-17T05:59:54.330Z,0.00
2023-01-17T06:00:54.336Z,0.00
2023-01-17T06:01:54.289Z,0.00
2023-01-17T06:02:54.323Z,0.00
2023-01-17T06:03:54.268Z,0.00
2023-01-17T06:04:54.305Z,0.00
2023-01-17T06:05:54.249Z,0.00
2023-01-17T06:06:54.236Z,0.00
2023-01-17T06:07:54.226Z,0.00
2023-01-17T06:08:54.273Z,0.00
2023-01-17T06:09:54.455Z,0.00
2023-01-17T06:10:54.227Z,0.00
2023-01-17T06:11:54.227Z,0.00
2023-01-17T06:12:54.264Z,0.00
2023-01-17T06:13:54.212Z,0.00
2023-01-17T06:14:54.213Z,0.00
2023-01-17T06:15:54.201Z,0.00
2023-01-17T06:16:54.174Z,0.00
2023-01-17T06:17:54.204Z,0.00
2023-01-17T06:18:54.163Z,0.00
2023-01-17T06:19:54.615Z,0.00
2023-01-17T06:20:54.621Z,0.00
2023-01-17T06:21:54.149Z,0.00
2023-01-17T06:22:54.141Z,0.00
2023-01-17T06:23:54.133Z,0.00
2023-01-17T06:24:54.172Z,0.00
2023-01-17T06:25:54.131Z,0.00
2023-01-17T06:26:54.138Z,0.00
2023-01-17T06:27:54.133Z,0.00
2023-01-17T06:28:54.114Z,0.00
2023-01-17T06:29:54.128Z,0.00
2023-01-17T06:30:54.851Z,0.00
2023-01-17T06:31:54.619Z,0.00
2023-01-17T06:32:54.090Z,0.00
2023-01-17T06:33:54.102Z,0.00
2023-01-17T06:34:54.089Z,0.00
2023-01-17T06:35:54.863Z,0.00
2023-01-17T06:36:54.057Z,0.00
2023-01-17T06:37:54.856Z,0.00
2023-01-17T06:38:54.455Z,0.00
2023-01-17T06:39:54.883Z,0.00
2023-01-17T06:40:54.016Z,0.00
2023-01-17T06:41:54.893Z,0.00
2023-01-17T06:42:54.125Z,0.00
2023-01-17T06:43:54.015Z,0.00
2023-01-17T06:44:54.856Z,0.00
2023-01-17T06:45:54.300Z,0.00
2023-01-17T06:46:54.057Z,0.00
2023-01-17T06:47:53.987Z,0.00
2023-01-17T06:48:53.982Z,0.00
2023-01-17T06:49:53.992Z,0.00
2023-01-17T06:50:53.997Z,0.00
2023-01-17T06:51:53.977Z,4.00
2023-01-17T06:52:54.140Z,4.00
2023-01-17T06:53:53.957Z,4.00
2023-01-17T06:54:54.035Z,4.00
2023-01-17T06:55:53.971Z,1.00
2023-01-17T06:56:54.384Z,0.00
2023-01-17T06:57:53.983Z,1.00
2023-01-17T06:58:53.986Z,1.00
2023-01-17T06:59:53.979Z,1.00
2023-01-17T07:00:54.012Z,1.00
2023-01-17T07:01:54.411Z,1.00
2023-01-17T07:02:54.618Z,3.00
2023-01-17T07:03:54.254Z,3.00
2023-01-17T07:04:53.908Z,4.00
2023-01-17T07:05:54.112Z,6.00
2023-01-17T07:06:53.922Z,27.00
2023-01-17T07:07:53.936Z,19.00
2023-01-17T07:08:54.407Z,15.00
2023-01-17T07:09:54.249Z,12.00
2023-01-17T07:10:53.866Z,20.00
2023-01-17T07:11:53.867Z,20.00
2023-01-17T07:12:53.898Z,30.00
2023-01-17T07:13:53.972Z,30.00
2023-01-17T07:14:54.587Z,40.00
2023-01-17T07:15:54.337Z,49.00
2023-01-17T07:16:54.787Z,57.00
2023-01-17T07:17:53.816Z,62.00
2023-01-17T07:18:53.794Z,50.00
2023-01-17T07:19:54.735Z,78.00
2023-01-17T07:20:53.787Z,82.00
2023-01-17T07:21:53.803Z,74.00
2023-01-17T07:22:54.562Z,82.00
2023-01-17T07:23:55.212Z,67.00
2023-01-17T07:24:53.834Z,89.00
2023-01-17T07:25:53.859Z,128.00
2023-01-17T07:26:53.821Z,141.00
2023-01-17T07:27:53.771Z,137.00
2023-01-17T07:28:53.792Z,117.00
2023-01-17T07:29:54.370Z,129.00
2023-01-17T07:30:53.850Z,176.00
2023-01-17T07:31:53.802Z,267.00
2023-01-17T07:32:53.730Z,405.00
2023-01-17T07:33:54.028Z,449.00
2023-01-17T07:34:54.045Z,477.00
2023-01-17T07:35:54.046Z,518.00
2023-01-17T07:36:54.039Z,519.00
2023-01-17T07:37:53.850Z,520.00
2023-01-17T07:38:53.850Z,509.00
2023-01-17T07:39:53.865Z,510.00
2023-01-17T07:40:53.657Z,535.00
2023-01-17T07:41:54.311Z,550.00
2023-01-17T07:42:54.179Z,492.00
2023-01-17T07:43:56.208Z,516.00
2023-01-17T07:44:53.977Z,551.00
2023-01-17T07:45:53.698Z,532.00
2023-01-17T07:46:53.765Z,505.00
2023-01-17T07:47:54.135Z,476.00
2023-01-17T07:48:53.715Z,493.00
2023-01-17T07:49:55.055Z,679.00
2023-01-17T07:50:53.825Z,644.00
2023-01-17T07:51:53.871Z,640.00
2023-01-17T07:52:53.603Z,732.00
2023-01-17T07:53:53.595Z,861.00
2023-01-17T07:54:53.574Z,849.00
2023-01-17T07:55:53.590Z,830.00
2023-01-17T07:56:53.572Z,956.00
2023-01-17T07:57:53.565Z,1079.00
2023-01-17T07:58:53.576Z,1104.00
2023-01-17T07:59:53.583Z,1097.00
2023-01-17T08:00:53.728Z,1114.00
2023-01-17T08:01:53.687Z,1117.00
2023-01-17T08:02:53.520Z,1153.00
2023-01-17T08:03:53.586Z,1128.00
2023-01-17T08:04:53.547Z,1017.00
2023-01-17T08:05:53.540Z,1008.00
2023-01-17T08:06:53.501Z,1021.00
2023-01-17T08:07:53.639Z,1362.00
2023-01-17T08:08:53.658Z,1391.00
2023-01-17T08:09:53.649Z,1315.00
2023-01-17T08:10:53.659Z,1223.00
2023-01-17T08:11:53.473Z,1280.00
2023-01-17T08:12:53.480Z,1277.00
2023-01-17T08:13:53.460Z,1343.00
2023-01-17T08:14:53.695Z,1450.00
2023-01-17T08:15:53.698Z,1463.00
2023-01-17T08:16:53.703Z,1544.00
2023-01-17T08:17:53.440Z,1693.00
2023-01-17T08:18:53.718Z,1904.00
2023-01-17T08:19:53.667Z,1839.00
2023-01-17T08:20:53.727Z,1842.00
2023-01-17T08:21:53.533Z,1873.00
2023-01-17T08:22:53.734Z,1941.00
2023-01-17T08:23:53.795Z,2049.00
2023-01-17T08:24:53.559Z,2094.00
2023-01-17T08:25:53.815Z,2051.00
2023-01-17T08:26:53.816Z,2114.00
2023-01-17T08:27:53.414Z,2067.00
2023-01-17T08:28:53.414Z,2311.00
2023-01-17T08:29:53.583Z,2629.00
2023-01-17T08:30:53.802Z,2615.00
2023-01-17T08:31:53.383Z,2215.00
2023-01-17T08:32:53.343Z,2186.00
2023-01-17T08:33:53.418Z,2415.00
2023-01-17T08:34:53.657Z,2787.00
2023-01-17T08:35:54.044Z,2305.00
2023-01-17T08:36:53.450Z,2016.00
2023-01-17T08:37:53.305Z,2374.00
2023-01-17T08:38:53.654Z,2655.00
2023-01-17T08:39:54.069Z,2912.00
2023-01-17T08:40:53.607Z,2427.00
2023-01-17T08:41:53.321Z,2953.00
2023-01-17T08:42:53.278Z,3338.00
2023-01-17T08:43:53.283Z,3410.00
2023-01-17T08:44:53.296Z,3082.00
2023-01-17T08:45:53.396Z,2801.00
2023-01-17T08:46:53.332Z,4289.00
2023-01-17T08:47:53.480Z,3679.00
2023-01-17T08:48:53.519Z,2938.00
2023-01-17T08:49:53.525Z,2595.00
2023-01-17T08:50:53.535Z,2538.00
2023-01-17T08:51:53.567Z,2562.00
2023-01-17T08:52:53.755Z,2593.00
2023-01-17T08:53:53.396Z,2627.00
2023-01-17T08:54:53.353Z,2693.00
2023-01-17T08:55:53.206Z,2761.00
2023-01-17T08:56:53.592Z,2818.00
2023-01-17T08:57:53.283Z,2863.00
2023-01-17T08:58:53.196Z,2926.00
2023-01-17T08:59:53.211Z,3026.00
2023-01-17T09:00:53.670Z,3288.00
2023-01-17T09:01:54.115Z,3459.00
2023-01-17T09:02:53.253Z,3595.00
2023-01-17T09:03:53.538Z,3753.00
2023-01-17T09:04:53.382Z,3627.00
2023-01-17T09:05:53.423Z,3688.00
2023-01-17T09:06:54.034Z,3637.00
2023-01-17T09:07:53.243Z,3180.00
2023-01-17T09:08:53.140Z,3384.00
2023-01-17T09:09:53.130Z,5464.00
2023-01-17T09:10:53.108Z,3780.00
2023-01-17T09:11:53.124Z,3193.00
2023-01-17T09:12:53.102Z,5777.00
2023-01-17T09:13:53.098Z,4712.00
2023-01-17T09:14:54.033Z,3693.00
2023-01-17T09:15:53.956Z,4170.00
2023-01-17T09:16:53.364Z,4662.00
2023-01-17T09:17:53.579Z,4337.00
2023-01-17T09:18:53.736Z,3690.00
2023-01-17T09:19:53.119Z,3963.00
2023-01-17T09:20:53.118Z,5193.00
2023-01-17T09:21:53.138Z,5437.00
2023-01-17T09:22:53.029Z,7192.00
2023-01-17T09:23:53.154Z,6092.00
2023-01-17T09:24:53.157Z,4052.00
2023-01-17T09:25:53.197Z,5878.00
2023-01-17T09:26:53.186Z,5830.00
2023-01-17T09:27:53.017Z,4214.00
2023-01-17T09:28:52.998Z,5311.00
2023-01-17T09:29:53.045Z,4572.00
2023-01-17T09:30:53.058Z,4377.00
2023-01-17T09:31:52.993Z,4527.00
2023-01-17T09:32:53.209Z,4571.00
2023-01-17T09:33:53.036Z,4438.00
2023-01-17T09:34:53.046Z,5411.00
2023-01-17T09:35:53.055Z,4770.00
2023-01-17T09:36:52.982Z,4353.00
2023-01-17T09:37:53.047Z,2817.00
2023-01-17T09:38:52.938Z,6147.00
2023-01-17T09:39:52.940Z,6439.00
2023-01-17T09:40:52.947Z,5094.00
2023-01-17T09:41:53.087Z,4710.00
2023-01-17T09:42:53.072Z,4806.00
2023-01-17T09:43:52.910Z,4535.00
2023-01-17T09:44:52.902Z,4291.00
2023-01-17T09:45:52.947Z,4211.00
2023-01-17T09:46:52.960Z,4097.00
2023-01-17T09:47:52.998Z,4106.00
2023-01-17T09:48:52.935Z,4251.00
2023-01-17T09:49:52.886Z,4179.00
2023-01-17T09:50:53.131Z,4098.00
2023-01-17T09:51:52.989Z,4203.00
2023-01-17T09:52:53.019Z,4274.00
2023-01-17T09:53:53.007Z,4177.00
2023-01-17T09:54:52.945Z,5036.00
2023-01-17T09:55:53.055Z,5438.00
2023-01-17T09:56:52.808Z,5139.00
2023-01-17T09:57:52.816Z,5539.00
2023-01-17T09:58:52.807Z,5112.00
2023-01-17T10:00:02.941Z,5545.00
2023-01-17T10:00:52.898Z,4622.00
2023-01-17T10:01:52.929Z,4698.00
2023-01-17T10:02:53.193Z,4577.00
2023-01-17T10:03:52.978Z,4722.00
2023-01-17T10:04:53.096Z,4411.00
2023-01-17T10:05:52.757Z,5001.00
2023-01-17T10:06:53.050Z,6943.00
2023-01-17T10:07:53.217Z,5629.00
2023-01-17T10:08:53.217Z,5786.00
2023-01-17T10:09:53.223Z,4949.00
2023-01-17T10:10:53.244Z,6058.00
2023-01-17T10:11:53.075Z,5227.00
2023-01-17T10:12:53.306Z,6174.00
2023-01-17T10:13:53.320Z,4964.00
2023-01-17T10:14:52.700Z,6281.00
2023-01-17T10:15:53.303Z,5637.00
2023-01-17T10:16:53.344Z,5335.00
2023-01-17T10:17:52.971Z,5374.00
2023-01-17T10:18:52.772Z,5794.00
2023-01-17T10:19:52.689Z,5951.00
2023-01-17T10:20:52.722Z,4963.00
2023-01-17T10:21:52.680Z,6661.00
2023-01-17T10:22:53.193Z,6052.00
2023-01-17T10:23:52.639Z,5372.00
2023-01-17T10:24:52.966Z,5460.00
2023-01-17T10:25:53.161Z,5463.00
2023-01-17T10:26:53.453Z,5395.00
2023-01-17T10:27:52.630Z,6548.00
2023-01-17T10:28:52.744Z,6170.00
2023-01-17T10:29:52.659Z,6933.00
2023-01-17T10:30:52.655Z,6061.00
2023-01-17T10:31:53.590Z,7760.00
2023-01-17T10:32:52.616Z,6665.00
2023-01-17T10:33:52.611Z,5493.00
2023-01-17T10:34:52.745Z,5519.00
2023-01-17T10:35:52.617Z,6799.00
2023-01-17T10:36:52.919Z,8257.00
2023-01-17T10:37:52.777Z,6006.00
2023-01-17T10:38:52.651Z,6067.00
2023-01-17T10:39:52.674Z,7737.00
2023-01-17T10:40:52.665Z,4980.00
2023-01-17T10:41:52.673Z,7495.00
2023-01-17T10:42:52.771Z,9697.00
2023-01-17T10:43:52.929Z,5070.00
2023-01-17T10:44:52.917Z,6522.00
2023-01-17T10:45:53.000Z,9408.00
2023-01-17T10:46:52.904Z,10789.00
2023-01-17T10:47:53.043Z,7304.00
2023-01-17T10:48:52.942Z,6362.00
2023-01-17T10:49:52.912Z,9662.00
2023-01-17T10:50:52.526Z,6066.00
2023-01-17T10:51:52.936Z,7084.00
2023-01-17T10:52:52.471Z,10015.00
2023-01-17T10:53:52.760Z,10066.00
2023-01-17T10:54:52.524Z,10578.00
2023-01-17T10:55:52.981Z,10097.00
2023-01-17T10:56:52.448Z,7586.00
2023-01-17T10:57:52.421Z,9283.00
2023-01-17T10:58:52.561Z,12734.00
2023-01-17T10:59:52.773Z,13116.00
2023-01-17T11:00:52.474Z,7820.00
2023-01-17T11:01:52.887Z,8093.00
2023-01-17T11:02:52.475Z,7311.00
2023-01-17T11:03:52.810Z,6517.00
2023-01-17T11:04:52.408Z,8219.00
2023-01-17T11:05:52.808Z,7566.00
2023-01-17T11:06:58.049Z,8642.00
2023-01-17T11:07:52.625Z,11705.00
2023-01-17T11:08:52.429Z,11922.00
2023-01-17T11:09:52.365Z,10299.00
2023-01-17T11:10:52.438Z,9669.00
2023-01-17T11:11:52.898Z,9847.00
2023-01-17T11:12:52.337Z,9228.00
2023-01-17T11:13:52.460Z,8643.00
2023-01-17T11:14:53.097Z,9120.00
2023-01-17T11:15:52.369Z,8247.00
2023-01-17T11:16:52.391Z,9349.00
2023-01-17T11:17:52.314Z,8400.00
2023-01-17T11:18:52.324Z,7657.00
2023-01-17T11:19:52.512Z,9719.00
2023-01-17T11:20:52.515Z,10237.00
2023-01-17T11:21:52.313Z,12483.00
2023-01-17T11:22:52.599Z,10945.00
2023-01-17T11:23:52.334Z,9862.00
2023-01-17T11:24:52.646Z,10714.00
2023-01-17T11:25:52.661Z,9290.00
2023-01-17T11:26:52.544Z,9765.00
2023-01-17T11:27:52.814Z,8423.00
2023-01-17T11:28:52.763Z,8355.00
2023-01-17T11:29:52.353Z,9863.00
2023-01-17T11:30:52.224Z,9950.00
2023-01-17T11:31:52.385Z,9415.00
2023-01-17T11:32:52.799Z,8516.00
2023-01-17T11:33:52.214Z,8325.00
2023-01-17T11:34:52.201Z,10420.00
2023-01-17T11:35:52.202Z,8981.00
2023-01-17T11:36:52.400Z,9029.00
2023-01-17T11:37:52.630Z,9971.00
2023-01-17T11:38:52.831Z,9090.00
2023-01-17T11:39:53.044Z,9061.00
2023-01-17T11:40:52.230Z,9063.00
2023-01-17T11:41:52.302Z,12238.00
2023-01-17T11:42:52.692Z,12756.00
2023-01-17T11:43:52.879Z,11050.00
2023-01-17T11:44:52.252Z,11792.00
2023-01-17T11:45:52.537Z,11273.00
2023-01-17T11:46:52.998Z,8895.00
2023-01-17T11:47:52.711Z,8407.00
2023-01-17T11:48:55.875Z,9332.00
2023-01-17T11:49:52.708Z,9919.00
2023-01-17T11:50:52.128Z,10032.00
2023-01-17T11:51:52.298Z,11898.00
2023-01-17T11:52:52.715Z,9575.00
2023-01-17T11:53:52.514Z,13852.00
2023-01-17T11:54:52.115Z,11924.00
2023-01-17T11:55:52.167Z,9610.00
2023-01-17T11:56:52.054Z,9462.00
2023-01-17T11:57:52.175Z,11478.00
2023-01-17T11:58:52.174Z,11828.00
2023-01-17T11:59:52.225Z,12991.00
2023-01-17T12:00:52.185Z,13040.00
2023-01-17T12:01:52.015Z,9358.00
2023-01-17T12:02:52.024Z,8962.00
2023-01-17T12:03:52.459Z,11051.00
2023-01-17T12:04:52.467Z,8646.00
2023-01-17T12:05:51.994Z,8031.00
2023-01-17T12:06:57.980Z,8706.00
2023-01-17T12:07:52.241Z,8862.00
2023-01-17T12:08:52.628Z,12049.00
2023-01-17T12:09:52.633Z,9188.00
2023-01-17T12:10:52.462Z,5855.00
2023-01-17T12:11:52.845Z,7238.00
2023-01-17T12:12:51.966Z,9243.00
2023-01-17T12:13:51.963Z,5462.00
2023-01-17T12:14:52.455Z,6672.00
2023-01-17T12:15:52.132Z,8876.00
2023-01-17T12:16:52.935Z,11980.00
2023-01-17T12:17:53.100Z,11267.00
2023-01-17T12:18:51.912Z,8405.00
2023-01-17T12:19:52.315Z,8825.00
2023-01-17T12:20:51.909Z,8925.00
2023-01-17T12:21:51.914Z,9121.00
2023-01-17T12:22:51.894Z,10822.00
2023-01-17T12:23:51.959Z,8470.00
2023-01-17T12:24:51.920Z,8524.00
2023-01-17T12:25:51.909Z,6732.00
2023-01-17T12:26:51.929Z,7495.00
2023-01-17T12:27:51.851Z,7465.00
2023-01-17T12:28:51.839Z,7529.00
2023-01-17T12:29:51.942Z,7655.00
2023-01-17T12:30:51.965Z,7470.00
2023-01-17T12:31:51.879Z,7990.00
2023-01-17T12:32:51.807Z,8722.00
2023-01-17T12:33:51.809Z,9098.00
2023-01-17T12:34:51.840Z,7996.00
2023-01-17T12:35:51.795Z,7539.00
2023-01-17T12:36:51.796Z,7242.00
2023-01-17T12:38:03.931Z,7683.00
2023-01-17T12:38:51.823Z,7756.00
2023-01-17T12:39:52.048Z,8671.00
2023-01-17T12:40:52.057Z,9029.00
2023-01-17T12:41:52.019Z,7495.00
2023-01-17T12:42:52.065Z,7101.00
2023-01-17T12:43:51.916Z,6640.00
2023-01-17T12:44:51.903Z,6194.00
2023-01-17T12:45:51.733Z,5782.00